Millard, Missouri
Current Conditions -  °F | °C
As of 4:20 AM on Saturday 25 Oct 2014 (Local Time) from KIRK Reporting Station
Moderate Fog Moderate Fog  
Wind Chill: 56°   Ceiling: 300
Heat Index: 56°   Visibility: 0.25mi
Dew Point: 56°   Wind: 6mph
Humidity: 100%   Direction: 290°WNW
Pressure: 30"   Gusts: NA
Location:  40.149°N, 92.6667°W
Report Text: KIRK 250920Z AUTO 29005KT 1/4SM FG VV003 13/13 A3000 RMK AO2 T01330133
Loading
Personal Weather Stations






























Interactive Weather Map
Tropical Storm Tracking
New forecast layout! Learn more

10-Day Weather Forecast

Advertisements
Track Severe Weather on mobile